Time;durP1;ratioP1;P1;durP2;ratioP2;P2;SDS_P1;SDS_P2;PMS_P1;PMS_P2;Temp;Humidity;BMP_temperature;BMP_pressure;BME280_temperature;BME280_humidity;BME280_pressure;Samples;Min_cycle;Max_cycle;Signal;HPM_P1;HPM_P2
2021/12/01 00:01:05;;;;;;;5.60;3.53;;;;;;;-3.26;100.00;61667.00;5063889;28;20209;-76
2021/12/01 00:03:32;;;;;;;5.90;3.97;;;;;;;-3.37;100.00;61660.75;5065501;28;20228;-77
2021/12/01 00:05:59;;;;;;;7.70;3.72;;;;;;;-3.48;100.00;61648.97;5069195;28;20210;-77
2021/12/01 00:08:26;;;;;;;7.05;4.18;;;;;;;-3.46;100.00;61649.06;5061286;28;20222;-77
2021/12/01 00:10:53;;;;;;;5.47;4.88;;;;;;;-3.31;100.00;61666.84;5050304;28;20232;-76
2021/12/01 00:13:22;;;;;;;6.03;4.40;;;;;;;-3.59;100.00;61633.81;5061866;28;20217;-76
2021/12/01 00:15:52;;;;;;;7.57;4.65;;;;;;;-3.66;100.00;61633.63;5063171;28;20233;-77
2021/12/01 00:18:19;;;;;;;5.40;4.53;;;;;;;-3.75;100.00;61616.97;5063342;28;20241;-77
2021/12/01 00:20:46;;;;;;;7.57;5.20;;;;;;;-3.91;100.00;61608.59;5062661;28;20556;-76
2021/12/01 00:23:13;;;;;;;5.72;4.82;;;;;;;-3.78;100.00;61623.84;5063289;28;20221;-77
2021/12/01 00:25:42;;;;;;;6.22;5.28;;;;;;;-3.80;100.00;61614.34;5062073;28;20202;-76
2021/12/01 00:28:09;;;;;;;10.23;5.22;;;;;;;-3.77;100.00;61622.38;5063485;28;20225;-77
2021/12/01 00:30:37;;;;;;;9.85;4.70;;;;;;;-3.83;100.00;61609.28;5062686;28;20201;-76
2021/12/01 00:33:05;;;;;;;8.70;6.05;;;;;;;-3.78;100.00;61621.38;5062276;28;20225;-77
2021/12/01 00:35:32;;;;;;;8.45;5.50;;;;;;;-3.86;100.00;61606.25;5063099;28;20228;-75
2021/12/01 00:37:59;;;;;;;9.00;5.00;;;;;;;-3.89;100.00;61610.63;5062796;28;20224;-77
2021/12/01 00:40:26;;;;;;;6.45;5.75;;;;;;;-4.01;100.00;61595.38;5073369;28;20196;-77
2021/12/01 00:42:54;;;;;;;7.07;5.22;;;;;;;-4.00;100.00;61596.91;5064155;28;20436;-76
2021/12/01 00:45:23;;;;;;;7.95;4.78;;;;;;;-4.04;100.00;61589.84;5059342;28;20251;-76
2021/12/01 00:47:52;;;;;;;7.00;5.05;;;;;;;-4.02;100.00;61591.91;5060280;28;20243;-76
2021/12/01 00:50:25;;;;;;;7.35;4.68;;;;;;;-4.01;100.00;61587.94;5060530;28;20253;-78
2021/12/01 00:52:52;;;;;;;6.25;5.18;;;;;;;-3.98;100.00;61601.44;5063069;28;20224;-76
2021/12/01 00:55:19;;;;;;;6.40;5.35;;;;;;;-3.96;100.00;61596.03;5054474;28;20534;-77
2021/12/01 00:57:46;;;;;;;6.95;5.40;;;;;;;-3.92;100.00;61604.59;5062387;28;20538;-76
2021/12/01 01:00:14;;;;;;;8.40;5.28;;;;;;;-3.85;100.00;61617.19;5060926;28;20196;-76
2021/12/01 01:02:41;;;;;;;5.97;4.95;;;;;;;-3.87;100.00;61605.22;5062090;28;20530;-76
2021/12/01 01:05:10;;;;;;;7.47;5.35;;;;;;;-3.90;100.00;61607.13;5062316;28;20205;-76
2021/12/01 01:07:38;;;;;;;4.93;4.03;;;;;;;-3.77;100.00;61622.88;5062042;28;20251;-76
2021/12/01 01:10:16;;;;;;;7.90;5.97;;;;;;;-3.78;100.00;61623.84;5060434;28;20220;-76
2021/12/01 01:18:13;;;;;;;5.10;4.40;;;;;;;-3.78;100.00;61616.38;5075261;28;20259;-75
2021/12/01 01:20:40;;;;;;;5.70;4.05;;;;;;;-3.83;100.00;61613.78;5057556;28;20197;-76
2021/12/01 01:23:08;;;;;;;4.45;4.07;;;;;;;-3.90;100.00;61601.66;5062379;28;20298;-75
2021/12/01 01:25:35;;;;;;;3.40;3.10;;;;;;;-3.84;100.00;61613.25;5062117;28;20361;-76
2021/12/01 01:28:02;;;;;;;5.30;4.30;;;;;;;-3.85;100.00;61611.72;5061416;28;20225;-75
2021/12/01 01:30:29;;;;;;;5.35;4.30;;;;;;;-3.77;100.00;61612.44;5061644;28;20252;-75
2021/12/01 01:32:56;;;;;;;3.78;3.55;;;;;;;-3.71;100.00;61629.00;5062469;28;20237;-77
2021/12/01 01:35:23;;;;;;;4.32;3.92;;;;;;;-3.68;100.00;61621.63;5061178;28;20354;-75
2021/12/01 01:37:50;;;;;;;6.68;3.72;;;;;;;-3.74;100.00;61616.00;5056194;28;20600;-76
2021/12/01 01:40:18;;;;;;;5.55;4.28;;;;;;;-3.60;100.00;61634.75;5056648;28;20216;-75
2021/12/01 01:42:48;;;;;;;6.90;4.10;;;;;;;-3.54;100.00;61646.38;5061413;28;20225;-76
2021/12/01 01:45:15;;;;;;;4.10;3.40;;;;;;;-3.50;100.00;61644.47;5068552;28;20205;-75
2021/12/01 01:47:51;;;;;;;11.70;4.05;;;;;;;-3.40;100.00;61654.69;5060311;28;20225;-76
2021/12/01 01:50:26;;;;;;;4.07;3.70;;;;;;;-3.34;100.00;61658.31;5061827;28;20247;-76
2021/12/01 01:52:53;;;;;;;3.85;3.42;;;;;;;-3.23;100.00;61672.03;5060511;28;20249;-76
2021/12/01 01:55:23;;;;;;;3.03;2.80;;;;;;;-3.20;100.00;61680.06;5061502;28;20495;-75
2021/12/01 01:57:50;;;;;;;7.10;3.90;;;;;;;-3.48;100.00;61644.53;5057795;28;20221;-76
2021/12/01 02:00:17;;;;;;;4.53;3.40;;;;;;;-3.41;100.00;61656.13;5058534;28;20251;-75
2021/12/01 02:02:46;;;;;;;5.15;3.97;;;;;;;-3.43;100.00;61649.13;5062021;28;20537;-76
2021/12/01 02:05:12;;;;;;;3.95;3.22;;;;;;;-3.30;100.00;61662.41;5052367;28;20232;-76
2021/12/01 02:07:40;;;;;;;4.20;3.35;;;;;;;-3.52;100.00;61640.94;5063100;28;20225;-75
2021/12/01 02:10:08;;;;;;;4.65;3.33;;;;;;;-3.72;100.00;61622.50;5061406;28;20423;-75
2021/12/01 02:12:39;;;;;;;4.97;4.03;;;;;;;-3.58;100.00;61637.31;5060181;28;20224;-76
2021/12/01 02:15:06;;;;;;;4.57;3.85;;;;;;;-3.50;100.00;61642.47;5065723;28;20421;-75
2021/12/01 02:17:33;;;;;;;4.50;3.65;;;;;;;-3.45;100.00;61647.59;5064962;28;20266;-75
2021/12/01 02:20:02;;;;;;;7.43;3.75;;;;;;;-3.51;100.00;61641.47;5065737;28;20205;-75
2021/12/01 02:22:33;;;;;;;5.32;3.35;;;;;;;-3.34;100.00;61658.31;5060461;28;20568;-75
2021/12/01 02:25:00;;;;;;;5.32;3.50;;;;;;;-3.21;100.00;61674.09;5064823;28;20205;-76
2021/12/01 02:27:27;;;;;;;7.00;3.28;;;;;;;-3.20;100.00;61672.59;5065521;28;20290;-75
2021/12/01 02:29:54;;;;;;;4.15;3.42;;;;;;;-3.06;100.00;61691.88;5065498;28;20489;-76
2021/12/01 02:32:21;;;;;;;3.08;2.88;;;;;;;-3.16;100.00;61676.69;5061850;28;20205;-76
2021/12/01 02:34:47;;;;;;;3.55;3.25;;;;;;;-3.13;100.00;61682.75;5061374;28;20596;-75
2021/12/01 02:37:15;;;;;;;5.65;3.42;;;;;;;-2.99;100.00;61692.09;5068361;28;20225;-75
2021/12/01 02:39:44;;;;;;;3.13;2.83;;;;;;;-3.11;100.00;61687.31;5085470;28;20201;-75
2021/12/01 02:42:13;;;;;;;4.07;3.30;;;;;;;-3.11;100.00;61686.78;5074172;28;20291;-76
2021/12/01 02:44:39;;;;;;;3.88;3.05;;;;;;;-2.86;100.00;61709.81;5060597;28;20325;-75
2021/12/01 02:47:06;;;;;;;5.47;4.88;;;;;;;-3.02;100.00;61688.50;5060740;28;20247;-76
2021/12/01 02:49:33;;;;;;;4.40;3.53;;;;;;;-3.09;100.00;61689.31;5065231;28;20406;-76
2021/12/01 02:52:00;;;;;;;4.70;3.47;;;;;;;-3.08;100.00;61687.34;5065026;28;20251;-75
2021/12/01 02:54:29;;;;;;;4.18;3.50;;;;;;;-3.03;100.00;61692.97;5061981;28;20546;-76
2021/12/01 02:56:58;;;;;;;5.03;3.65;;;;;;;-3.10;100.00;61685.31;5064719;28;20264;-75
2021/12/01 02:59:25;;;;;;;5.35;4.85;;;;;;;-3.05;100.00;61687.94;5064515;28;20225;-76
2021/12/01 03:01:53;;;;;;;4.60;4.18;;;;;;;-3.01;100.00;61694.50;5068795;28;20200;-75
2021/12/01 03:04:22;;;;;;;4.30;3.83;;;;;;;-2.88;100.00;61710.78;5055591;28;20542;-77
2021/12/01 03:06:50;;;;;;;3.92;3.42;;;;;;;-2.99;100.00;61696.56;5062916;28;20209;-75
2021/12/01 03:09:17;;;;;;;3.05;2.85;;;;;;;-2.89;100.00;61704.28;5060896;28;20213;-76
2021/12/01 03:11:44;;;;;;;4.30;2.92;;;;;;;-2.96;100.00;61694.63;5064902;28;20201;-75
2021/12/01 03:14:15;;;;;;;3.80;3.50;;;;;;;-3.08;100.00;61689.84;5063629;28;20224;-75
2021/12/01 03:16:42;;;;;;;6.57;3.47;;;;;;;-2.85;100.00;61711.38;5061320;28;20312;-76
2021/12/01 03:19:09;;;;;;;11.25;3.30;;;;;;;-3.05;100.00;61685.94;5064104;28;20259;-75
2021/12/01 03:21:37;;;;;;;3.95;3.65;;;;;;;-3.03;100.00;61699.94;5068965;28;20208;-76
2021/12/01 03:24:05;;;;;;;4.43;3.33;;;;;;;-2.96;100.00;61697.13;5072386;28;20542;-75
2021/12/01 03:26:33;;;;;;;4.65;3.25;;;;;;;-3.05;100.00;61693.41;5058716;28;20193;-76
2021/12/01 03:29:01;;;;;;;3.00;2.80;;;;;;;-3.04;100.00;61688.97;5064168;28;20229;-75
2021/12/01 03:31:29;;;;;;;4.70;2.42;;;;;;;-2.99;100.00;61696.56;5064161;28;20209;-75
2021/12/01 03:33:55;;;;;;;2.83;2.58;;;;;;;-3.07;100.00;61686.41;5064263;28;20228;-75
2021/12/01 03:36:22;;;;;;;3.63;2.78;;;;;;;-2.99;100.00;61696.56;5060667;28;20237;-75
2021/12/01 03:38:49;;;;;;;4.15;3.33;;;;;;;-3.07;100.00;61685.91;5064268;28;20274;-75
2021/12/01 03:41:16;;;;;;;3.33;3.03;;;;;;;-3.09;100.00;61681.38;5062342;28;20495;-76
2021/12/01 03:43:43;;;;;;;7.95;3.53;;;;;;;-3.12;100.00;61678.81;5063487;28;20225;-76
2021/12/01 03:46:10;;;;;;;5.07;3.00;;;;;;;-3.08;100.00;61689.84;5063314;28;20224;-75
2021/12/01 03:48:38;;;;;;;3.25;2.95;;;;;;;-3.06;100.00;61687.44;5063754;28;20232;-75
2021/12/01 03:51:04;;;;;;;4.78;3.45;;;;;;;-2.98;100.00;61705.03;5060150;28;20208;-76
2021/12/01 03:53:31;;;;;;;4.47;3.53;;;;;;;-3.08;100.00;61684.88;5057932;28;20248;-76
2021/12/01 03:55:59;;;;;;;3.78;3.47;;;;;;;-2.93;100.00;61705.16;5062658;28;20197;-75
2021/12/01 03:58:25;;;;;;;3.72;3.08;;;;;;;-2.93;100.00;61700.69;5063701;28;20600;-75
2021/12/01 04:00:52;;;;;;;3.50;3.20;;;;;;;-2.80;100.00;61715.97;5063769;28;20208;-75
2021/12/01 04:03:19;;;;;;;5.63;3.53;;;;;;;-2.73;100.00;61723.63;5056714;28;20263;-75
2021/12/01 04:05:47;;;;;;;4.68;3.58;;;;;;;-2.67;100.00;61724.25;5052796;28;20201;-74
2021/12/01 04:08:14;;;;;;;3.55;3.28;;;;;;;-2.56;100.00;61738.00;5078554;28;20228;-74
2021/12/01 04:10:41;;;;;;;4.57;3.58;;;;;;;-2.46;100.00;61751.22;5065353;28;20205;-75
2021/12/01 04:13:07;;;;;;;14.35;9.07;;;;;;;-2.48;100.00;61744.19;5063824;28;20232;-75
2021/12/01 04:15:34;;;;;;;3.92;3.55;;;;;;;-2.48;100.00;61749.19;5063620;28;20205;-76
2021/12/01 04:18:01;;;;;;;2.78;2.55;;;;;;;-2.42;100.00;61754.81;5059711;28;20255;-75
2021/12/01 04:20:28;;;;;;;2.78;2.50;;;;;;;-2.21;100.00;61773.78;5062381;28;20369;-74
2021/12/01 04:22:56;;;;;;;3.00;2.20;;;;;;;-2.10;100.00;61782.53;5063291;28;20225;-76
2021/12/01 04:25:23;;;;;;;2.67;2.42;;;;;;;-2.03;100.00;61791.66;5061822;28;20252;-75
2021/12/01 04:27:50;;;;;;;3.33;2.50;;;;;;;-2.02;100.00;61798.19;5056843;28;20289;-75
2021/12/01 04:30:21;;;;;;;4.30;3.25;;;;;;;-1.86;100.00;61811.56;5057609;28;20244;-76
2021/12/01 04:32:47;;;;;;;2.60;2.40;;;;;;;-1.80;100.00;61815.19;5061623;28;20221;-75
2021/12/01 04:35:17;;;;;;;3.80;2.70;;;;;;;-1.90;100.00;61807.47;5063779;28;20244;-76
2021/12/01 04:37:44;;;;;;;4.30;3.28;;;;;;;-1.89;100.00;61804.00;5057835;28;20228;-76
2021/12/01 04:40:14;;;;;;;3.28;2.97;;;;;;;-1.86;100.00;61809.56;5062690;28;20202;-76
2021/12/01 04:42:41;;;;;;;2.70;2.50;;;;;;;-1.79;100.00;61819.22;5063107;28;20525;-75
2021/12/01 04:45:18;;;;;;;2.92;2.65;;;;;;;-1.80;100.00;61815.72;5079947;28;20215;-77
2021/12/01 04:47:48;;;;;;;3.78;2.55;;;;;;;-1.67;100.00;61829.00;5055170;28;20224;-75
2021/12/01 04:50:16;;;;;;;2.85;2.45;;;;;;;-1.68;100.00;61829.97;5063882;28;20205;-76
2021/12/01 04:52:43;;;;;;;5.03;3.30;;;;;;;-1.50;100.00;61848.41;5070614;28;20217;-75
2021/12/01 04:55:12;;;;;;;2.92;2.70;;;;;;;-1.45;100.00;61854.00;5067592;28;20193;-75
2021/12/01 04:57:40;;;;;;;40.75;21.85;;;;;;;-1.37;100.00;61859.72;5063151;28;20303;-75
2021/12/01 05:00:09;;;;;;;5.22;3.38;;;;;;;-1.42;100.00;61857.09;5062588;28;20208;-76
2021/12/01 05:02:36;;;;;;;3.80;2.83;;;;;;;-1.25;100.00;61872.00;5062282;28;20282;-76
2021/12/01 05:05:04;;;;;;;3.00;2.80;;;;;;;-1.22;100.00;61877.56;5055124;28;20198;-76
2021/12/01 05:07:30;;;;;;;3.60;3.30;;;;;;;-1.26;100.00;61878.44;5060084;28;20221;-75
2021/12/01 05:09:57;;;;;;;7.10;3.15;;;;;;;-1.23;100.00;61881.00;5062689;28;20239;-75
2021/12/01 05:12:25;;;;;;;3.45;2.58;;;;;;;-1.28;100.00;61868.41;5062498;28;20233;-74
2021/12/01 05:14:52;;;;;;;3.42;2.67;;;;;;;-1.17;100.00;61879.16;5063027;28;20395;-77
2021/12/01 05:17:20;;;;;;;4.00;3.60;;;;;;;-1.20;100.00;61879.09;5062541;28;20224;-76
2021/12/01 05:19:47;;;;;;;3.45;3.00;;;;;;;-1.26;100.00;61872.97;5060171;28;20230;-77
2021/12/01 05:22:14;;;;;;;3.85;3.47;;;;;;;-1.39;100.00;61852.66;5058223;28;20219;-75
2021/12/01 05:24:41;;;;;;;3.80;3.45;;;;;;;-1.54;100.00;61842.31;5062291;28;20375;-77
2021/12/01 05:27:08;;;;;;;4.57;4.18;;;;;;;-1.54;100.00;61842.31;5062894;28;20220;-75
2021/12/01 05:29:37;;;;;;;4.15;3.85;;;;;;;-1.90;100.00;61808.00;5056406;28;20200;-77
2021/12/01 05:32:04;;;;;;;5.40;3.63;;;;;;;-1.83;100.00;61817.63;5057075;28;20216;-76
2021/12/01 05:34:31;;;;;;;5.75;3.50;;;;;;;-1.73;100.00;61822.38;5062286;28;20197;-75
2021/12/01 05:37:00;;;;;;;6.25;3.85;;;;;;;-1.66;100.00;61830.03;5064584;28;20245;-76
2021/12/01 05:39:27;;;;;;;5.78;4.20;;;;;;;-1.67;100.00;61831.00;5048166;28;20198;-76
2021/12/01 05:41:54;;;;;;;3.53;3.22;;;;;;;-1.65;100.00;61838.03;5056349;28;20201;-76
2021/12/01 05:44:21;;;;;;;5.78;3.38;;;;;;;-1.58;100.00;61837.69;5058036;28;20522;-77
2021/12/01 05:46:49;;;;;;;10.35;4.43;;;;;;;-1.59;100.00;61834.69;5063683;28;20494;-76
2021/12/01 05:49:16;;;;;;;5.75;3.17;;;;;;;-1.64;100.00;61834.06;5060353;28;20413;-75
2021/12/01 05:51:43;;;;;;;4.30;3.90;;;;;;;-1.61;100.00;61829.66;5061409;28;20264;-76
2021/12/01 05:54:12;;;;;;;4.50;3.55;;;;;;;-1.60;100.00;61838.66;5063089;28;20259;-76
2021/12/01 05:56:39;;;;;;;5.32;4.18;;;;;;;-1.81;100.00;61814.69;5065520;28;20229;-76
2021/12/01 05:59:06;;;;;;;7.38;5.43;;;;;;;-1.61;100.00;61842.66;5064202;28;20291;-77
2021/12/01 06:01:32;;;;;;;6.32;4.30;;;;;;;-1.59;100.00;61834.19;5066115;28;20255;-76
2021/12/01 06:04:01;;;;;;;8.13;4.90;;;;;;;-1.68;100.00;61825.50;5064239;28;20218;-76
2021/12/01 06:06:28;;;;;;;3.97;3.50;;;;;;;-1.49;100.00;61846.91;5063716;28;20239;-76
2021/12/01 06:08:55;;;;;;;5.65;4.55;;;;;;;-1.42;100.00;61851.59;5057602;28;20213;-77
2021/12/01 06:11:22;;;;;;;12.32;5.32;;;;;;;-1.33;100.00;61868.78;5065603;28;20231;-76
2021/12/01 06:13:51;;;;;;;7.78;4.65;;;;;;;-1.32;100.00;61866.81;5065080;28;20224;-76
2021/12/01 06:16:20;;;;;;;13.05;9.43;;;;;;;-1.63;100.00;61837.59;5067082;28;20249;-77
2021/12/01 06:18:47;;;;;;;7.15;4.50;;;;;;;-1.52;100.00;61846.34;5060002;28;20236;-76
2021/12/01 06:21:15;;;;;;;9.32;5.38;;;;;;;-1.42;100.00;61854.59;5066555;28;20205;-76
2021/12/01 06:23:42;;;;;;;10.88;5.80;;;;;;;-1.39;100.00;61857.66;5066147;28;20232;-77
2021/12/01 06:26:10;;;;;;;4.35;3.88;;;;;;;-1.32;100.00;61864.81;5066778;28;20209;-76
2021/12/01 06:28:37;;;;;;;6.90;5.07;;;;;;;-1.36;100.00;61863.22;5063671;28;20224;-77
2021/12/01 06:31:06;;;;;;;7.15;4.82;;;;;;;-1.26;100.00;61872.97;5071318;28;20201;-77
2021/12/01 06:33:32;;;;;;;5.13;3.90;;;;;;;-1.26;100.00;61870.97;5065043;28;20572;-76
2021/12/01 06:35:59;;;;;;;7.88;4.32;;;;;;;-1.19;100.00;61880.63;5063603;28;20243;-75
2021/12/01 06:38:27;;;;;;;5.07;4.13;;;;;;;-1.09;100.00;61889.84;5060553;28;20548;-76
2021/12/01 06:40:54;;;;;;;7.07;5.38;;;;;;;-1.03;100.00;61891.50;5065364;28;20201;-76
2021/12/01 06:43:21;;;;;;;4.68;4.28;;;;;;;-1.21;100.00;61875.56;5062729;28;20538;-76
2021/12/01 06:45:48;;;;;;;5.15;4.72;;;;;;;-1.07;100.00;61894.88;5064986;28;20205;-77
2021/12/01 06:48:15;;;;;;;7.45;5.25;;;;;;;-1.12;100.00;61894.25;5050602;28;20243;-76
2021/12/01 06:50:42;;;;;;;8.32;5.35;;;;;;;-1.11;100.00;61882.78;5064436;28;20204;-76
2021/12/01 06:53:09;;;;;;;8.55;5.80;;;;;;;-1.16;100.00;61883.19;5070225;28;20256;-77
2021/12/01 06:55:37;;;;;;;8.02;6.70;;;;;;;-1.26;100.00;61870.97;5065008;28;20522;-77
2021/12/01 06:58:04;;;;;;;4.65;4.32;;;;;;;-1.14;100.00;61879.72;5063818;28;20241;-77
2021/12/01 07:00:31;;;;;;;8.20;5.88;;;;;;;-0.79;100.00;61923.56;5064834;28;20269;-77
2021/12/01 07:02:58;;;;;;;8.75;5.70;;;;;;;-0.49;100.00;61946.78;5064588;28;20225;-78
2021/12/01 07:05:25;;;;;;;10.00;6.18;;;;;;;-0.30;100.00;61971.25;5065873;28;20393;-79
2021/12/01 07:07:52;;;;;;;6.90;5.60;;;;;;;-0.20;100.00;61974.00;5063148;28;20221;-79
2021/12/01 07:10:20;;;;;;;10.23;5.32;;;;;;;0.08;100.00;62006.66;5066583;28;20258;-80
2021/12/01 07:12:48;;;;;;;4.60;4.20;;;;;;;0.31;99.82;62033.25;5054391;28;20493;-80
2021/12/01 07:15:16;;;;;;;5.82;4.70;;;;;;;0.63;99.47;62061.03;5067941;28;20202;-79
2021/12/01 07:17:43;;;;;;;9.75;5.05;;;;;;;0.51;96.58;62058.75;5067383;28;20263;-80
2021/12/01 07:20:11;;;;;;;8.07;4.78;;;;;;;0.53;96.35;62057.78;5066744;28;20517;-81
2021/12/01 07:22:39;;;;;;;16.58;7.18;;;;;;;0.46;96.27;62043.63;5067033;28;20436;-81
2021/12/01 07:25:06;;;;;;;9.32;4.70;;;;;;;0.73;97.88;62071.31;5066820;28;20201;-80
2021/12/01 07:27:33;;;;;;;5.97;4.05;;;;;;;1.02;95.52;62098.00;5067626;28;20247;-80
2021/12/01 07:30:02;;;;;;;9.05;5.30;;;;;;;0.63;95.72;62068.03;5067204;28;20284;-80
2021/12/01 07:32:28;;;;;;;9.43;5.32;;;;;;;0.63;95.85;62063.56;5066201;28;20225;-80
2021/12/01 07:34:56;;;;;;;8.70;4.60;;;;;;;0.67;96.42;62067.66;5064647;28;20205;-81
2021/12/01 07:37:23;;;;;;;9.70;3.65;;;;;;;0.63;96.56;62066.06;5064076;28;20573;-81
2021/12/01 07:39:50;;;;;;;5.00;4.47;;;;;;;0.57;99.70;62057.38;5067268;28;20204;-81
2021/12/01 07:42:17;;;;;;;7.78;5.28;;;;;;;0.36;97.71;62040.88;5061199;28;20213;-80
2021/12/01 07:44:44;;;;;;;5.78;4.28;;;;;;;0.54;99.58;62056.31;5079181;28;20204;-81
2021/12/01 07:47:12;;;;;;;8.27;4.63;;;;;;;0.67;99.66;62072.16;5077780;28;20266;-80
2021/12/01 07:49:39;;;;;;;7.50;4.60;;;;;;;0.88;99.11;62091.19;5072316;28;20240;-81
2021/12/01 07:52:07;;;;;;;4.78;4.28;;;;;;;1.04;98.14;62110.59;5061837;28;20220;-80
2021/12/01 07:54:33;;;;;;;4.70;4.00;;;;;;;1.12;96.14;62113.28;5074207;28;20201;-80
2021/12/01 07:57:01;;;;;;;6.93;4.15;;;;;;;1.22;97.30;62125.53;5078563;28;20212;-81
2021/12/01 07:59:28;;;;;;;7.30;3.97;;;;;;;1.11;96.26;62114.78;5064579;28;20264;-80
2021/12/01 08:01:55;;;;;;;5.65;4.47;;;;;;;1.13;94.94;62114.84;5063555;28;20494;-80
2021/12/01 08:04:23;;;;;;;4.50;4.10;;;;;;;1.04;96.36;62108.09;5057774;28;20228;-80
2021/12/01 08:06:49;;;;;;;6.88;5.60;;;;;;;1.22;96.35;62128.56;5066513;28;20204;-79
2021/12/01 08:09:16;;;;;;;12.77;6.10;;;;;;;1.28;96.61;62132.22;5065910;28;20229;-79
2021/12/01 08:11:43;;;;;;;6.45;5.40;;;;;;;1.44;97.73;62145.59;5063651;28;20197;-79
2021/12/01 08:14:09;;;;;;;7.13;5.15;;;;;;;1.40;97.29;62146.53;5053775;28;20308;-79
2021/12/01 08:16:37;;;;;;;7.50;4.93;;;;;;;1.55;96.04;62154.41;5064768;28;20205;-77
2021/12/01 08:19:04;;;;;;;6.93;5.28;;;;;;;1.64;94.95;62163.63;5068163;28;20236;-77
2021/12/01 08:21:33;;;;;;;6.03;5.05;;;;;;;1.85;95.74;62190.19;5059371;28;20198;-78
2021/12/01 08:24:00;;;;;;;6.85;5.25;;;;;;;1.68;93.95;62170.22;5063751;28;20237;-79
2021/12/01 08:26:27;;;;;;;6.88;6.15;;;;;;;1.67;93.58;62166.72;5064812;28;20216;-77
2021/12/01 08:28:53;;;;;;;8.63;5.38;;;;;;;1.79;93.83;62179.53;5062671;28;20228;-77
2021/12/01 08:31:21;;;;;;;7.65;5.22;;;;;;;1.87;93.73;62190.25;5054382;28;20202;-79
2021/12/01 08:33:48;;;;;;;8.70;5.53;;;;;;;1.96;94.61;62207.03;5062424;28;20225;-77
2021/12/01 08:36:16;;;;;;;5.20;4.70;;;;;;;1.92;94.47;62197.91;5064475;28;20239;-77
2021/12/01 08:38:45;;;;;;;5.72;5.10;;;;;;;1.74;94.74;62178.91;5065136;28;20237;-79
2021/12/01 08:41:12;;;;;;;9.50;5.38;;;;;;;1.59;94.62;62161.00;5062987;28;20201;-78
2021/12/01 08:43:39;;;;;;;5.85;5.22;;;;;;;1.73;95.02;62178.41;5064441;28;20232;-78
2021/12/01 08:46:07;;;;;;;6.20;4.85;;;;;;;1.66;94.57;62168.19;5066082;28;20209;-79
2021/12/01 08:48:34;;;;;;;8.57;4.60;;;;;;;1.40;94.89;62144.53;5066118;28;20225;-78
2021/12/01 08:51:02;;;;;;;8.05;5.65;;;;;;;1.05;95.93;62108.63;5066777;28;20209;-78
2021/12/01 08:53:30;;;;;;;4.85;4.07;;;;;;;0.88;98.90;62091.69;5066874;28;20283;-78
2021/12/01 08:56:02;;;;;;;6.47;4.45;;;;;;;1.05;98.78;62106.63;5065243;28;20198;-78
2021/12/01 08:58:29;;;;;;;5.43;4.35;;;;;;;0.99;98.43;62100.47;5058787;28;20232;-78
2021/12/01 09:00:56;;;;;;;7.47;4.55;;;;;;;0.80;97.72;62082.97;5057010;28;20198;-77
2021/12/01 09:03:25;;;;;;;15.55;5.93;;;;;;;0.76;98.56;62076.88;5062857;28;20380;-77
2021/12/01 09:05:53;;;;;;;8.20;4.88;;;;;;;0.89;100.00;62095.22;5063187;28;20388;-77
2021/12/01 09:08:22;;;;;;;7.40;5.35;;;;;;;1.28;100.00;62129.19;5064899;28;20265;-78
2021/12/01 09:10:52;;;;;;;7.22;5.88;;;;;;;1.43;100.00;62150.13;5065010;28;20220;-78
2021/12/01 09:13:20;;;;;;;8.07;5.13;;;;;;;1.64;100.00;62171.16;5063794;28;20220;-76
2021/12/01 09:15:47;;;;;;;8.77;5.50;;;;;;;1.67;99.85;62172.25;5063375;28;20197;-76
2021/12/01 09:18:14;;;;;;;7.47;5.15;;;;;;;1.59;100.00;62163.53;5060852;28;20526;-76
2021/12/01 09:20:41;;;;;;;8.75;5.30;;;;;;;1.59;99.62;62161.00;5066262;28;20448;-77
2021/12/01 09:23:08;;;;;;;9.93;6.30;;;;;;;1.76;100.00;62183.47;5074451;28;20655;-77
2021/12/01 09:25:35;;;;;;;11.93;7.15;;;;;;;1.92;100.00;62202.41;5061015;28;20335;-77
2021/12/01 09:28:01;;;;;;;12.65;7.55;;;;;;;2.08;100.00;62216.31;5058630;28;20553;-77
2021/12/01 09:30:30;;;;;;;12.95;6.85;;;;;;;2.23;100.00;62226.69;5065882;28;20197;-77
2021/12/01 09:32:57;;;;;;;11.57;7.28;;;;;;;2.39;100.00;62248.16;5066938;28;20225;-77
2021/12/01 09:35:24;;;;;;;8.55;6.72;;;;;;;2.24;98.98;62230.25;5066075;28;20205;-77
2021/12/01 09:37:51;;;;;;;14.20;7.97;;;;;;;2.23;100.00;62226.69;5062507;28;20247;-78
2021/12/01 09:40:19;;;;;;;14.50;8.20;;;;;;;2.40;100.00;62244.16;5066244;28;20201;-77
2021/12/01 09:42:49;;;;;;;11.77;7.65;;;;;;;2.66;100.00;62275.41;5066356;28;20217;-76
2021/12/01 09:45:18;;;;;;;12.40;8.10;;;;;;;2.62;99.26;62273.78;5057130;28;20549;-78
2021/12/01 09:47:46;;;;;;;15.25;8.52;;;;;;;2.61;97.14;62270.25;5063432;28;20229;-78
2021/12/01 09:50:13;;;;;;;14.13;8.82;;;;;;;2.42;98.45;62251.25;5066185;28;20494;-77
2021/12/01 09:52:40;;;;;;;13.13;7.28;;;;;;;2.59;100.00;62263.69;5066950;28;20324;-77
2021/12/01 09:55:11;;;;;;;9.05;7.20;;;;;;;2.85;100.00;62292.91;5075512;28;20246;-77
2021/12/01 09:57:38;;;;;;;10.55;6.80;;;;;;;2.68;98.14;62272.41;5070544;28;20225;-77
2021/12/01 10:00:07;;;;;;;11.15;7.07;;;;;;;2.76;99.02;62281.13;5067405;28;20244;-77
2021/12/01 10:02:35;;;;;;;10.70;7.03;;;;;;;2.80;99.63;62287.78;5066642;28;20228;-76
2021/12/01 10:05:03;;;;;;;9.63;7.55;;;;;;;2.95;100.00;62303.19;5066784;28;20227;-78
2021/12/01 10:07:33;;;;;;;12.13;7.38;;;;;;;3.05;97.87;62310.97;5067162;28;20468;-77
2021/12/01 10:10:07;;;;;;;13.73;6.90;;;;;;;2.99;97.95;62306.78;5062907;28;20249;-78
2021/12/01 10:12:49;;;;;;;7.10;6.32;;;;;;;3.19;99.80;62322.81;5066597;28;20244;-78
2021/12/01 10:15:29;;;;;;;8.27;5.88;;;;;;;3.46;99.90;62352.59;5066763;28;20205;-78
2021/12/01 10:18:10;;;;;;;8.48;5.78;;;;;;;3.62;99.25;62368.53;5063831;28;20213;-78
2021/12/01 10:20:38;;;;;;;10.35;5.53;;;;;;;3.83;97.15;62392.63;5073300;28;20424;-76
2021/12/01 10:23:09;;;;;;;7.55;5.30;;;;;;;3.68;92.60;62374.69;5069711;28;20221;-78
2021/12/01 10:25:36;;;;;;;9.25;4.97;;;;;;;3.88;95.71;62395.25;5064987;28;20243;-78
2021/12/01 10:28:03;;;;;;;9.18;4.60;;;;;;;4.08;92.53;62420.88;5060864;28;20217;-77
2021/12/01 10:30:39;;;;;;;6.80;4.50;;;;;;;4.11;90.73;62421.94;5066445;28;20444;-76
2021/12/01 10:33:07;;;;;;;7.38;4.72;;;;;;;4.12;91.07;62420.47;5066034;28;20279;-77
2021/12/01 10:35:35;;;;;;;8.70;5.20;;;;;;;4.15;88.67;62423.03;5066485;28;20205;-76
2021/12/01 10:38:04;;;;;;;8.77;4.55;;;;;;;4.22;91.41;62435.28;5063912;28;20327;-77
2021/12/01 10:40:31;;;;;;;9.50;5.10;;;;;;;4.27;90.45;62438.41;5062013;28;20221;-77
2021/12/01 10:43:00;;;;;;;5.15;4.72;;;;;;;4.38;89.30;62449.22;5066726;28;20233;-78
2021/12/01 10:45:28;;;;;;;9.73;5.93;;;;;;;4.52;91.73;62461.63;5057636;28;20511;-77
2021/12/01 10:47:57;;;;;;;9.38;4.85;;;;;;;3.95;90.68;62404.97;5062331;28;20237;-78
2021/12/01 10:50:26;;;;;;;5.28;4.78;;;;;;;4.35;90.07;62446.66;5064032;28;20206;-76
2021/12/01 10:52:56;;;;;;;6.90;5.18;;;;;;;4.39;92.96;62447.72;5079252;28;20615;-78
2021/12/01 10:55:27;;;;;;;5.32;4.82;;;;;;;4.30;87.69;62435.94;5065954;28;20198;-78
2021/12/01 10:57:57;;;;;;;11.32;5.50;;;;;;;4.32;89.99;62440.53;5060363;28;20284;-77
2021/12/01 11:00:27;;;;;;;9.88;5.45;;;;;;;4.45;90.86;62458.94;5060953;28;20279;-78
2021/12/01 11:02:55;;;;;;;7.00;5.63;;;;;;;4.35;87.98;62446.66;5065504;28;20225;-77
2021/12/01 11:05:30;;;;;;;5.72;5.00;;;;;;;4.36;88.96;62445.16;5066766;28;20197;-77
2021/12/01 11:07:57;;;;;;;8.40;5.35;;;;;;;4.49;92.27;62460.53;5062143;28;20226;-77
2021/12/01 11:10:26;;;;;;;8.68;5.40;;;;;;;4.58;90.10;62472.31;5066354;28;20197;-77
2021/12/01 11:12:57;;;;;;;8.05;4.95;;;;;;;4.54;90.06;62465.69;5068202;28;20469;-77
2021/12/01 11:15:28;;;;;;;11.13;7.78;;;;;;;4.38;89.00;62454.25;5074868;28;20267;-78
2021/12/01 11:17:56;;;;;;;15.60;8.73;;;;;;;4.36;88.06;62442.66;5063579;28;20254;-77
2021/12/01 11:20:38;;;;;;;11.68;7.07;;;;;;;4.35;89.85;62443.59;5060945;28;20201;-78
2021/12/01 11:23:12;;;;;;;7.20;6.50;;;;;;;4.51;91.10;62462.59;5065561;28;20361;-78
2021/12/01 11:25:41;;;;;;;10.25;6.82;;;;;;;4.34;92.12;62447.63;5079448;28;20201;-79
2021/12/01 11:28:09;;;;;;;10.65;6.45;;;;;;;4.51;94.86;62465.13;5072809;28;20227;-78
2021/12/01 11:30:36;;;;;;;10.15;7.28;;;;;;;4.62;91.93;62476.94;5062873;28;20201;-78
2021/12/01 11:33:04;;;;;;;13.73;7.38;;;;;;;4.68;92.14;62485.13;5065212;28;20217;-79
2021/12/01 11:35:31;;;;;;;10.32;6.75;;;;;;;4.67;91.13;62476.56;5067979;28;20224;-80
2021/12/01 11:37:58;;;;;;;6.10;5.60;;;;;;;4.54;88.97;62463.16;5073483;28;20387;-79